sensor_id;sensor_type;location;lat;lon;timestamp;P1;durP1;ratioP1;P2;durP2;ratioP2
1682;SDS011;13252;53.596;10.060;2023-05-13T00:01:03;11.53;;;7.87;;
1682;SDS011;13252;53.596;10.060;2023-05-13T00:03:31;9.80;;;7.70;;
1682;SDS011;13252;53.596;10.060;2023-05-13T00:05:59;11.40;;;8.07;;
1682;SDS011;13252;53.596;10.060;2023-05-13T00:08:27;10.20;;;7.80;;
1682;SDS011;13252;53.596;10.060;2023-05-13T00:10:55;10.73;;;7.30;;
1682;SDS011;13252;53.596;10.060;2023-05-13T00:13:22;11.70;;;8.03;;
1682;SDS011;13252;53.596;10.060;2023-05-13T00:15:50;9.13;;;6.80;;
1682;SDS011;13252;53.596;10.060;2023-05-13T00:18:19;14.63;;;8.07;;
1682;SDS011;13252;53.596;10.060;2023-05-13T00:20:47;11.53;;;7.30;;
1682;SDS011;13252;53.596;10.060;2023-05-13T00:23:19;9.80;;;7.30;;
1682;SDS011;13252;53.596;10.060;2023-05-13T00:25:47;13.43;;;8.20;;
1682;SDS011;13252;53.596;10.060;2023-05-13T00:28:14;15.07;;;7.30;;
1682;SDS011;13252;53.596;10.060;2023-05-13T00:30:42;11.77;;;8.13;;
1682;SDS011;13252;53.596;10.060;2023-05-13T00:33:11;12.73;;;8.20;;
1682;SDS011;13252;53.596;10.060;2023-05-13T00:35:40;10.83;;;7.30;;
1682;SDS011;13252;53.596;10.060;2023-05-13T00:38:08;11.50;;;7.57;;
1682;SDS011;13252;53.596;10.060;2023-05-13T00:40:36;16.57;;;8.90;;
1682;SDS011;13252;53.596;10.060;2023-05-13T00:43:04;9.87;;;7.70;;
1682;SDS011;13252;53.596;10.060;2023-05-13T00:45:32;21.80;;;8.10;;
1682;SDS011;13252;53.596;10.060;2023-05-13T00:48:00;12.70;;;8.60;;
1682;SDS011;13252;53.596;10.060;2023-05-13T00:50:27;10.13;;;8.23;;
1682;SDS011;13252;53.596;10.060;2023-05-13T00:52:57;12.60;;;8.33;;
1682;SDS011;13252;53.596;10.060;2023-05-13T00:55:25;12.20;;;8.07;;
1682;SDS011;13252;53.596;10.060;2023-05-13T00:57:52;13.50;;;9.57;;
1682;SDS011;13252;53.596;10.060;2023-05-13T01:00:20;12.90;;;9.10;;
1682;SDS011;13252;53.596;10.060;2023-05-13T01:02:49;15.57;;;9.43;;
1682;SDS011;13252;53.596;10.060;2023-05-13T01:05:23;18.13;;;9.30;;
1682;SDS011;13252;53.596;10.060;2023-05-13T01:07:58;13.33;;;9.00;;
1682;SDS011;13252;53.596;10.060;2023-05-13T01:10:30;11.33;;;9.00;;
1682;SDS011;13252;53.596;10.060;2023-05-13T01:13:06;12.87;;;9.40;;
1682;SDS011;13252;53.596;10.060;2023-05-13T01:15:38;10.53;;;8.93;;
1682;SDS011;13252;53.596;10.060;2023-05-13T01:18:08;14.53;;;8.90;;
1682;SDS011;13252;53.596;10.060;2023-05-13T01:20:45;15.23;;;11.57;;
1682;SDS011;13252;53.596;10.060;2023-05-13T01:23:14;20.73;;;10.03;;
1682;SDS011;13252;53.596;10.060;2023-05-13T01:25:42;12.47;;;10.30;;
1682;SDS011;13252;53.596;10.060;2023-05-13T01:28:10;13.60;;;10.63;;
1682;SDS011;13252;53.596;10.060;2023-05-13T01:30:41;13.23;;;10.30;;
1682;SDS011;13252;53.596;10.060;2023-05-13T01:33:08;13.73;;;10.53;;
1682;SDS011;13252;53.596;10.060;2023-05-13T01:35:37;12.20;;;10.67;;
1682;SDS011;13252;53.596;10.060;2023-05-13T01:38:06;19.20;;;10.17;;
1682;SDS011;13252;53.596;10.060;2023-05-13T01:40:36;13.87;;;11.20;;
1682;SDS011;13252;53.596;10.060;2023-05-13T01:43:05;15.17;;;11.30;;
1682;SDS011;13252;53.596;10.060;2023-05-13T01:45:34;10.90;;;9.80;;
1682;SDS011;13252;53.596;10.060;2023-05-13T01:48:03;15.67;;;11.60;;
1682;SDS011;13252;53.596;10.060;2023-05-13T01:50:40;15.40;;;11.90;;
1682;SDS011;13252;53.596;10.060;2023-05-13T01:53:08;18.80;;;11.43;;
1682;SDS011;13252;53.596;10.060;2023-05-13T01:55:38;14.13;;;12.10;;
1682;SDS011;13252;53.596;10.060;2023-05-13T01:58:07;14.60;;;11.67;;
1682;SDS011;13252;53.596;10.060;2023-05-13T02:00:35;14.70;;;12.03;;
1682;SDS011;13252;53.596;10.060;2023-05-13T02:03:02;16.70;;;11.70;;
1682;SDS011;13252;53.596;10.060;2023-05-13T02:05:30;13.40;;;12.03;;
1682;SDS011;13252;53.596;10.060;2023-05-13T02:08:02;17.23;;;13.70;;
1682;SDS011;13252;53.596;10.060;2023-05-13T02:10:30;19.40;;;13.17;;
1682;SDS011;13252;53.596;10.060;2023-05-13T02:13:00;16.40;;;12.63;;
1682;SDS011;13252;53.596;10.060;2023-05-13T02:15:30;18.53;;;13.10;;
1682;SDS011;13252;53.596;10.060;2023-05-13T02:17:57;16.27;;;13.10;;
1682;SDS011;13252;53.596;10.060;2023-05-13T02:20:25;22.17;;;13.00;;
1682;SDS011;13252;53.596;10.060;2023-05-13T02:22:53;16.53;;;13.77;;
1682;SDS011;13252;53.596;10.060;2023-05-13T02:25:21;18.60;;;14.73;;
1682;SDS011;13252;53.596;10.060;2023-05-13T02:27:49;19.33;;;14.47;;
1682;SDS011;13252;53.596;10.060;2023-05-13T02:30:18;18.40;;;14.03;;
1682;SDS011;13252;53.596;10.060;2023-05-13T02:32:46;18.07;;;13.90;;
1682;SDS011;13252;53.596;10.060;2023-05-13T02:35:14;17.97;;;13.80;;
1682;SDS011;13252;53.596;10.060;2023-05-13T02:37:41;16.73;;;13.67;;
1682;SDS011;13252;53.596;10.060;2023-05-13T02:40:10;15.07;;;13.47;;
1682;SDS011;13252;53.596;10.060;2023-05-13T02:42:38;18.87;;;15.83;;
1682;SDS011;13252;53.596;10.060;2023-05-13T02:45:07;19.33;;;14.40;;
1682;SDS011;13252;53.596;10.060;2023-05-13T02:47:40;15.90;;;14.20;;
1682;SDS011;13252;53.596;10.060;2023-05-13T02:50:10;19.00;;;14.97;;
1682;SDS011;13252;53.596;10.060;2023-05-13T02:52:40;21.43;;;16.60;;
1682;SDS011;13252;53.596;10.060;2023-05-13T02:55:08;18.90;;;13.90;;
1682;SDS011;13252;53.596;10.060;2023-05-13T02:57:36;28.73;;;14.70;;
1682;SDS011;13252;53.596;10.060;2023-05-13T03:00:04;27.97;;;15.10;;
1682;SDS011;13252;53.596;10.060;2023-05-13T03:02:34;16.53;;;14.83;;
1682;SDS011;13252;53.596;10.060;2023-05-13T03:05:04;26.93;;;15.83;;
1682;SDS011;13252;53.596;10.060;2023-05-13T03:07:32;21.93;;;14.63;;
1682;SDS011;13252;53.596;10.060;2023-05-13T03:10:00;18.50;;;14.57;;
1682;SDS011;13252;53.596;10.060;2023-05-13T03:12:27;18.03;;;16.13;;
1682;SDS011;13252;53.596;10.060;2023-05-13T03:14:55;20.03;;;16.90;;
1682;SDS011;13252;53.596;10.060;2023-05-13T03:17:23;16.80;;;15.10;;
1682;SDS011;13252;53.596;10.060;2023-05-13T03:19:51;18.97;;;16.03;;
1682;SDS011;13252;53.596;10.060;2023-05-13T03:22:19;17.50;;;15.40;;
1682;SDS011;13252;53.596;10.060;2023-05-13T03:24:48;25.30;;;14.80;;
1682;SDS011;13252;53.596;10.060;2023-05-13T03:27:16;24.30;;;16.50;;
1682;SDS011;13252;53.596;10.060;2023-05-13T03:29:44;23.83;;;15.37;;
1682;SDS011;13252;53.596;10.060;2023-05-13T03:32:15;20.93;;;15.30;;
1682;SDS011;13252;53.596;10.060;2023-05-13T03:34:43;17.87;;;15.97;;
1682;SDS011;13252;53.596;10.060;2023-05-13T03:37:12;19.03;;;17.03;;
1682;SDS011;13252;53.596;10.060;2023-05-13T03:39:41;17.37;;;15.60;;
1682;SDS011;13252;53.596;10.060;2023-05-13T03:42:09;22.53;;;16.80;;
1682;SDS011;13252;53.596;10.060;2023-05-13T03:44:37;25.20;;;18.80;;
1682;SDS011;13252;53.596;10.060;2023-05-13T03:47:05;21.87;;;17.50;;
1682;SDS011;13252;53.596;10.060;2023-05-13T03:49:33;20.90;;;17.00;;
1682;SDS011;13252;53.596;10.060;2023-05-13T03:52:00;25.30;;;18.20;;
1682;SDS011;13252;53.596;10.060;2023-05-13T03:54:28;19.20;;;17.17;;
1682;SDS011;13252;53.596;10.060;2023-05-13T03:56:57;23.00;;;17.70;;
1682;SDS011;13252;53.596;10.060;2023-05-13T03:59:25;23.43;;;19.43;;
1682;SDS011;13252;53.596;10.060;2023-05-13T04:01:52;19.43;;;17.43;;
1682;SDS011;13252;53.596;10.060;2023-05-13T04:04:20;23.03;;;20.70;;
1682;SDS011;13252;53.596;10.060;2023-05-13T04:06:48;20.80;;;18.60;;
1682;SDS011;13252;53.596;10.060;2023-05-13T04:09:15;25.50;;;18.40;;
1682;SDS011;13252;53.596;10.060;2023-05-13T04:11:43;21.30;;;18.77;;
1682;SDS011;13252;53.596;10.060;2023-05-13T04:14:12;25.70;;;19.13;;
1682;SDS011;13252;53.596;10.060;2023-05-13T04:16:41;23.23;;;18.00;;
1682;SDS011;13252;53.596;10.060;2023-05-13T04:19:09;26.80;;;19.50;;
1682;SDS011;13252;53.596;10.060;2023-05-13T04:21:37;19.47;;;17.50;;
1682;SDS011;13252;53.596;10.060;2023-05-13T04:24:04;26.83;;;19.57;;
1682;SDS011;13252;53.596;10.060;2023-05-13T04:26:32;22.00;;;18.90;;
1682;SDS011;13252;53.596;10.060;2023-05-13T04:29:00;27.80;;;18.93;;
1682;SDS011;13252;53.596;10.060;2023-05-13T04:31:29;27.00;;;19.07;;
1682;SDS011;13252;53.596;10.060;2023-05-13T04:33:56;24.87;;;19.30;;
1682;SDS011;13252;53.596;10.060;2023-05-13T04:36:25;24.43;;;19.10;;
1682;SDS011;13252;53.596;10.060;2023-05-13T04:38:54;20.60;;;18.40;;
1682;SDS011;13252;53.596;10.060;2023-05-13T04:41:22;22.43;;;19.00;;
1682;SDS011;13252;53.596;10.060;2023-05-13T04:43:49;20.83;;;18.13;;
1682;SDS011;13252;53.596;10.060;2023-05-13T04:46:17;21.07;;;18.83;;
1682;SDS011;13252;53.596;10.060;2023-05-13T04:48:48;21.67;;;19.30;;
1682;SDS011;13252;53.596;10.060;2023-05-13T04:51:17;22.87;;;16.77;;
1682;SDS011;13252;53.596;10.060;2023-05-13T04:53:45;20.07;;;17.43;;
1682;SDS011;13252;53.596;10.060;2023-05-13T04:56:13;21.33;;;15.53;;
1682;SDS011;13252;53.596;10.060;2023-05-13T04:58:42;18.40;;;16.60;;
1682;SDS011;13252;53.596;10.060;2023-05-13T05:01:11;18.60;;;16.37;;
1682;SDS011;13252;53.596;10.060;2023-05-13T05:03:39;20.53;;;16.60;;
1682;SDS011;13252;53.596;10.060;2023-05-13T05:06:09;24.00;;;17.53;;
1682;SDS011;13252;53.596;10.060;2023-05-13T05:08:38;18.60;;;15.90;;
1682;SDS011;13252;53.596;10.060;2023-05-13T05:11:06;37.23;;;16.10;;
1682;SDS011;13252;53.596;10.060;2023-05-13T05:13:35;17.77;;;15.43;;
1682;SDS011;13252;53.596;10.060;2023-05-13T05:16:03;18.80;;;14.03;;
1682;SDS011;13252;53.596;10.060;2023-05-13T05:18:32;17.60;;;14.20;;
1682;SDS011;13252;53.596;10.060;2023-05-13T05:21:03;20.13;;;16.47;;
1682;SDS011;13252;53.596;10.060;2023-05-13T05:23:32;17.00;;;13.57;;
1682;SDS011;13252;53.596;10.060;2023-05-13T05:25:59;15.43;;;13.13;;
1682;SDS011;13252;53.596;10.060;2023-05-13T05:28:41;13.20;;;11.90;;
1682;SDS011;13252;53.596;10.060;2023-05-13T05:31:09;20.90;;;12.80;;
1682;SDS011;13252;53.596;10.060;2023-05-13T05:33:37;15.67;;;12.97;;
1682;SDS011;13252;53.596;10.060;2023-05-13T05:36:07;14.30;;;10.97;;
1682;SDS011;13252;53.596;10.060;2023-05-13T05:38:38;14.17;;;11.03;;
1682;SDS011;13252;53.596;10.060;2023-05-13T05:41:07;14.40;;;11.10;;
1682;SDS011;13252;53.596;10.060;2023-05-13T05:43:35;15.70;;;11.03;;
1682;SDS011;13252;53.596;10.060;2023-05-13T05:46:03;12.53;;;10.77;;
1682;SDS011;13252;53.596;10.060;2023-05-13T05:48:31;14.83;;;11.40;;
1682;SDS011;13252;53.596;10.060;2023-05-13T05:51:00;17.27;;;10.80;;
1682;SDS011;13252;53.596;10.060;2023-05-13T05:53:30;12.60;;;9.63;;
1682;SDS011;13252;53.596;10.060;2023-05-13T05:56:01;17.73;;;9.60;;
1682;SDS011;13252;53.596;10.060;2023-05-13T05:58:29;13.53;;;11.30;;
1682;SDS011;13252;53.596;10.060;2023-05-13T06:00:57;14.17;;;9.40;;
1682;SDS011;13252;53.596;10.060;2023-05-13T06:03:25;14.90;;;9.60;;
1682;SDS011;13252;53.596;10.060;2023-05-13T06:05:53;15.00;;;10.93;;
1682;SDS011;13252;53.596;10.060;2023-05-13T06:08:21;15.13;;;8.37;;
1682;SDS011;13252;53.596;10.060;2023-05-13T06:10:55;10.73;;;8.60;;
1682;SDS011;13252;53.596;10.060;2023-05-13T06:13:25;11.10;;;7.70;;
1682;SDS011;13252;53.596;10.060;2023-05-13T06:15:53;10.30;;;8.33;;
1682;SDS011;13252;53.596;10.060;2023-05-13T06:18:21;14.87;;;8.23;;
1682;SDS011;13252;53.596;10.060;2023-05-13T06:20:49;8.60;;;7.70;;
1682;SDS011;13252;53.596;10.060;2023-05-13T06:23:17;12.00;;;7.33;;
1682;SDS011;13252;53.596;10.060;2023-05-13T06:25:44;13.33;;;8.40;;
1682;SDS011;13252;53.596;10.060;2023-05-13T06:28:12;12.17;;;7.77;;
1682;SDS011;13252;53.596;10.060;2023-05-13T06:30:42;8.73;;;6.90;;
1682;SDS011;13252;53.596;10.060;2023-05-13T06:33:10;9.53;;;7.30;;
1682;SDS011;13252;53.596;10.060;2023-05-13T06:35:38;11.70;;;6.47;;
1682;SDS011;13252;53.596;10.060;2023-05-13T06:38:07;10.13;;;6.40;;
1682;SDS011;13252;53.596;10.060;2023-05-13T06:40:35;11.77;;;7.13;;
1682;SDS011;13252;53.596;10.060;2023-05-13T06:43:03;12.93;;;7.20;;
1682;SDS011;13252;53.596;10.060;2023-05-13T06:45:36;9.73;;;5.57;;
1682;SDS011;13252;53.596;10.060;2023-05-13T06:48:05;10.40;;;7.33;;
1682;SDS011;13252;53.596;10.060;2023-05-13T06:50:35;11.20;;;6.07;;
1682;SDS011;13252;53.596;10.060;2023-05-13T06:53:03;8.00;;;6.13;;
1682;SDS011;13252;53.596;10.060;2023-05-13T06:55:31;21.73;;;6.70;;
1682;SDS011;13252;53.596;10.060;2023-05-13T06:58:01;11.70;;;5.60;;
1682;SDS011;13252;53.596;10.060;2023-05-13T07:00:28;8.13;;;6.10;;
1682;SDS011;13252;53.596;10.060;2023-05-13T07:02:56;8.27;;;5.47;;
1682;SDS011;13252;53.596;10.060;2023-05-13T07:05:33;9.57;;;5.80;;
1682;SDS011;13252;53.596;10.060;2023-05-13T07:08:01;11.70;;;5.13;;
1682;SDS011;13252;53.596;10.060;2023-05-13T07:10:32;8.63;;;5.47;;
1682;SDS011;13252;53.596;10.060;2023-05-13T07:13:00;11.43;;;7.17;;
1682;SDS011;13252;53.596;10.060;2023-05-13T07:15:28;9.80;;;6.90;;
1682;SDS011;13252;53.596;10.060;2023-05-13T07:17:56;10.93;;;5.83;;
1682;SDS011;13252;53.596;10.060;2023-05-13T07:20:24;11.30;;;5.60;;
1682;SDS011;13252;53.596;10.060;2023-05-13T07:22:53;8.33;;;5.07;;
1682;SDS011;13252;53.596;10.060;2023-05-13T07:25:21;11.00;;;5.93;;
1682;SDS011;13252;53.596;10.060;2023-05-13T07:27:49;11.80;;;6.03;;
1682;SDS011;13252;53.596;10.060;2023-05-13T07:30:16;8.60;;;5.87;;
1682;SDS011;13252;53.596;10.060;2023-05-13T07:32:44;11.17;;;5.23;;
1682;SDS011;13252;53.596;10.060;2023-05-13T07:35:12;9.40;;;6.10;;
1682;SDS011;13252;53.596;10.060;2023-05-13T07:37:42;9.07;;;5.77;;
1682;SDS011;13252;53.596;10.060;2023-05-13T07:40:12;8.90;;;5.70;;
1682;SDS011;13252;53.596;10.060;2023-05-13T07:42:40;10.13;;;5.73;;
1682;SDS011;13252;53.596;10.060;2023-05-13T07:45:08;9.87;;;4.77;;
1682;SDS011;13252;53.596;10.060;2023-05-13T07:47:37;8.13;;;6.20;;
1682;SDS011;13252;53.596;10.060;2023-05-13T07:50:08;12.60;;;5.43;;
1682;SDS011;13252;53.596;10.060;2023-05-13T07:52:35;11.80;;;5.03;;
1682;SDS011;13252;53.596;10.060;2023-05-13T07:55:04;8.73;;;5.10;;
1682;SDS011;13252;53.596;10.060;2023-05-13T07:57:33;7.00;;;4.50;;
1682;SDS011;13252;53.596;10.060;2023-05-13T08:00:01;13.87;;;5.80;;
1682;SDS011;13252;53.596;10.060;2023-05-13T08:02:38;10.67;;;4.60;;
1682;SDS011;13252;53.596;10.060;2023-05-13T08:05:06;13.23;;;5.60;;
1682;SDS011;13252;53.596;10.060;2023-05-13T08:07:34;9.67;;;4.97;;
1682;SDS011;13252;53.596;10.060;2023-05-13T08:10:04;8.73;;;4.60;;
1682;SDS011;13252;53.596;10.060;2023-05-13T08:12:36;9.50;;;5.00;;
1682;SDS011;13252;53.596;10.060;2023-05-13T08:15:06;9.73;;;4.87;;
1682;SDS011;13252;53.596;10.060;2023-05-13T08:17:34;9.00;;;4.80;;
1682;SDS011;13252;53.596;10.060;2023-05-13T08:20:05;14.63;;;4.37;;
1682;SDS011;13252;53.596;10.060;2023-05-13T08:22:33;14.60;;;4.80;;
1682;SDS011;13252;53.596;10.060;2023-05-13T08:25:01;12.60;;;4.67;;
1682;SDS011;13252;53.596;10.060;2023-05-13T08:27:30;5.87;;;4.00;;
1682;SDS011;13252;53.596;10.060;2023-05-13T08:29:59;8.93;;;4.37;;
1682;SDS011;13252;53.596;10.060;2023-05-13T08:32:27;6.63;;;4.30;;
1682;SDS011;13252;53.596;10.060;2023-05-13T08:34:55;10.60;;;4.23;;
1682;SDS011;13252;53.596;10.060;2023-05-13T08:37:23;8.07;;;4.07;;
1682;SDS011;13252;53.596;10.060;2023-05-13T08:39:51;19.83;;;7.20;;
1682;SDS011;13252;53.596;10.060;2023-05-13T08:42:21;8.83;;;4.07;;
1682;SDS011;13252;53.596;10.060;2023-05-13T08:44:49;7.50;;;4.33;;
1682;SDS011;13252;53.596;10.060;2023-05-13T08:47:23;11.93;;;4.50;;
1682;SDS011;13252;53.596;10.060;2023-05-13T08:49:53;7.77;;;5.03;;
1682;SDS011;13252;53.596;10.060;2023-05-13T08:52:21;14.97;;;6.23;;
1682;SDS011;13252;53.596;10.060;2023-05-13T08:54:49;6.20;;;4.00;;
1682;SDS011;13252;53.596;10.060;2023-05-13T08:57:18;8.40;;;4.13;;
1682;SDS011;13252;53.596;10.060;2023-05-13T08:59:46;17.03;;;5.60;;
1682;SDS011;13252;53.596;10.060;2023-05-13T09:02:14;11.17;;;3.60;;
1682;SDS011;13252;53.596;10.060;2023-05-13T09:04:43;9.00;;;4.23;;
1682;SDS011;13252;53.596;10.060;2023-05-13T09:07:12;5.43;;;3.60;;
1682;SDS011;13252;53.596;10.060;2023-05-13T09:09:40;5.57;;;3.90;;
1682;SDS011;13252;53.596;10.060;2023-05-13T09:12:08;9.20;;;4.43;;
1682;SDS011;13252;53.596;10.060;2023-05-13T09:14:36;10.13;;;4.33;;
1682;SDS011;13252;53.596;10.060;2023-05-13T09:17:04;10.43;;;4.30;;
1682;SDS011;13252;53.596;10.060;2023-05-13T09:19:34;8.00;;;3.97;;
1682;SDS011;13252;53.596;10.060;2023-05-13T09:22:03;10.23;;;4.50;;
1682;SDS011;13252;53.596;10.060;2023-05-13T09:24:31;7.70;;;4.10;;
1682;SDS011;13252;53.596;10.060;2023-05-13T09:26:59;11.97;;;4.30;;
1682;SDS011;13252;53.596;10.060;2023-05-13T09:29:26;5.40;;;3.87;;
1682;SDS011;13252;53.596;10.060;2023-05-13T09:31:55;8.17;;;4.23;;
1682;SDS011;13252;53.596;10.060;2023-05-13T09:34:24;7.33;;;4.10;;
1682;SDS011;13252;53.596;10.060;2023-05-13T09:36:56;9.50;;;3.43;;
1682;SDS011;13252;53.596;10.060;2023-05-13T09:39:26;9.50;;;4.57;;
1682;SDS011;13252;53.596;10.060;2023-05-13T09:41:56;5.63;;;4.20;;
1682;SDS011;13252;53.596;10.060;2023-05-13T09:44:24;9.47;;;4.17;;
1682;SDS011;13252;53.596;10.060;2023-05-13T09:46:53;5.80;;;4.00;;
1682;SDS011;13252;53.596;10.060;2023-05-13T09:49:21;7.17;;;3.53;;
1682;SDS011;13252;53.596;10.060;2023-05-13T09:51:49;7.93;;;4.20;;
1682;SDS011;13252;53.596;10.060;2023-05-13T09:54:17;7.43;;;3.97;;
1682;SDS011;13252;53.596;10.060;2023-05-13T09:56:47;7.27;;;4.03;;
1682;SDS011;13252;53.596;10.060;2023-05-13T09:59:15;7.23;;;4.80;;
1682;SDS011;13252;53.596;10.060;2023-05-13T10:01:43;9.70;;;5.77;;
1682;SDS011;13252;53.596;10.060;2023-05-13T10:04:12;8.90;;;3.90;;
1682;SDS011;13252;53.596;10.060;2023-05-13T10:06:40;5.57;;;3.50;;
1682;SDS011;13252;53.596;10.060;2023-05-13T10:09:08;5.90;;;3.60;;
1682;SDS011;13252;53.596;10.060;2023-05-13T10:11:36;8.20;;;4.37;;
1682;SDS011;13252;53.596;10.060;2023-05-13T10:14:06;9.07;;;3.97;;
1682;SDS011;13252;53.596;10.060;2023-05-13T10:16:34;8.00;;;4.67;;
1682;SDS011;13252;53.596;10.060;2023-05-13T10:19:02;11.70;;;4.37;;
1682;SDS011;13252;53.596;10.060;2023-05-13T10:21:31;6.10;;;3.90;;
1682;SDS011;13252;53.596;10.060;2023-05-13T10:24:01;6.17;;;4.20;;
1682;SDS011;13252;53.596;10.060;2023-05-13T10:26:30;9.60;;;3.50;;
1682;SDS011;13252;53.596;10.060;2023-05-13T10:28:59;8.23;;;4.13;;
1682;SDS011;13252;53.596;10.060;2023-05-13T10:31:28;9.83;;;4.00;;
1682;SDS011;13252;53.596;10.060;2023-05-13T10:33:57;7.50;;;4.63;;
1682;SDS011;13252;53.596;10.060;2023-05-13T10:36:30;8.70;;;4.60;;
1682;SDS011;13252;53.596;10.060;2023-05-13T10:39:09;9.73;;;4.00;;
1682;SDS011;13252;53.596;10.060;2023-05-13T10:42:07;14.40;;;4.30;;
1682;SDS011;13252;53.596;10.060;2023-05-13T10:44:54;8.63;;;3.80;;
1682;SDS011;13252;53.596;10.060;2023-05-13T10:47:23;13.00;;;3.17;;
1682;SDS011;13252;53.596;10.060;2023-05-13T10:49:51;11.83;;;3.13;;
1682;SDS011;13252;53.596;10.060;2023-05-13T10:52:21;8.10;;;3.67;;
1682;SDS011;13252;53.596;10.060;2023-05-13T10:54:59;9.77;;;4.80;;
1682;SDS011;13252;53.596;10.060;2023-05-13T10:57:34;7.30;;;3.37;;
1682;SDS011;13252;53.596;10.060;2023-05-13T11:00:12;7.67;;;3.90;;
1682;SDS011;13252;53.596;10.060;2023-05-13T11:02:43;9.67;;;3.63;;
1682;SDS011;13252;53.596;10.060;2023-05-13T11:05:18;11.53;;;3.43;;
1682;SDS011;13252;53.596;10.060;2023-05-13T11:07:57;6.77;;;3.50;;
1682;SDS011;13252;53.596;10.060;2023-05-13T11:10:28;15.80;;;3.90;;
1682;SDS011;13252;53.596;10.060;2023-05-13T11:13:05;7.70;;;3.20;;
1682;SDS011;13252;53.596;10.060;2023-05-13T11:15:51;5.40;;;3.80;;
1682;SDS011;13252;53.596;10.060;2023-05-13T11:18:23;11.33;;;3.30;;
1682;SDS011;13252;53.596;10.060;2023-05-13T11:20:59;12.43;;;3.80;;
1682;SDS011;13252;53.596;10.060;2023-05-13T11:23:31;10.53;;;4.20;;
1682;SDS011;13252;53.596;10.060;2023-05-13T11:26:09;6.33;;;3.70;;
1682;SDS011;13252;53.596;10.060;2023-05-13T11:31:40;7.17;;;3.43;;
1682;SDS011;13252;53.596;10.060;2023-05-13T11:34:11;9.00;;;3.57;;
1682;SDS011;13252;53.596;10.060;2023-05-13T11:36:41;5.80;;;3.60;;
1682;SDS011;13252;53.596;10.060;2023-05-13T11:39:14;12.43;;;4.10;;
1682;SDS011;13252;53.596;10.060;2023-05-13T11:41:44;7.27;;;3.50;;
1682;SDS011;13252;53.596;10.060;2023-05-13T11:44:14;8.93;;;3.20;;
1682;SDS011;13252;53.596;10.060;2023-05-13T11:46:52;9.83;;;3.90;;
1682;SDS011;13252;53.596;10.060;2023-05-13T11:49:30;15.73;;;4.93;;
1682;SDS011;13252;53.596;10.060;2023-05-13T11:51:58;10.17;;;3.73;;
1682;SDS011;13252;53.596;10.060;2023-05-13T11:54:26;4.80;;;3.93;;
1682;SDS011;13252;53.596;10.060;2023-05-13T11:56:54;8.83;;;3.73;;
1682;SDS011;13252;53.596;10.060;2023-05-13T11:59:23;6.00;;;3.60;;
1682;SDS011;13252;53.596;10.060;2023-05-13T12:01:58;6.90;;;3.53;;
1682;SDS011;13252;53.596;10.060;2023-05-13T12:04:27;9.40;;;4.00;;
1682;SDS011;13252;53.596;10.060;2023-05-13T12:06:57;5.43;;;3.63;;
1682;SDS011;13252;53.596;10.060;2023-05-13T12:09:25;7.07;;;3.13;;
1682;SDS011;13252;53.596;10.060;2023-05-13T12:11:53;12.23;;;3.90;;
1682;SDS011;13252;53.596;10.060;2023-05-13T12:14:21;8.17;;;3.70;;
1682;SDS011;13252;53.596;10.060;2023-05-13T12:16:51;8.63;;;3.13;;
1682;SDS011;13252;53.596;10.060;2023-05-13T12:19:19;9.20;;;4.67;;
1682;SDS011;13252;53.596;10.060;2023-05-13T12:21:48;6.47;;;3.37;;
1682;SDS011;13252;53.596;10.060;2023-05-13T12:24:18;7.00;;;3.67;;
1682;SDS011;13252;53.596;10.060;2023-05-13T12:26:46;7.17;;;3.27;;
1682;SDS011;13252;53.596;10.060;2023-05-13T12:29:14;9.53;;;3.00;;
1682;SDS011;13252;53.596;10.060;2023-05-13T12:31:42;10.70;;;3.43;;
1682;SDS011;13252;53.596;10.060;2023-05-13T12:34:29;4.77;;;2.90;;
1682;SDS011;13252;53.596;10.060;2023-05-13T12:37:07;12.10;;;4.47;;
1682;SDS011;13252;53.596;10.060;2023-05-13T12:39:39;6.97;;;3.10;;
1682;SDS011;13252;53.596;10.060;2023-05-13T12:42:16;6.70;;;2.70;;
1682;SDS011;13252;53.596;10.060;2023-05-13T12:44:44;18.23;;;14.13;;
1682;SDS011;13252;53.596;10.060;2023-05-13T12:47:12;6.23;;;3.50;;
1682;SDS011;13252;53.596;10.060;2023-05-13T12:49:50;8.40;;;3.60;;
1682;SDS011;13252;53.596;10.060;2023-05-13T12:52:19;8.30;;;3.80;;
1682;SDS011;13252;53.596;10.060;2023-05-13T12:54:49;7.20;;;3.17;;
1682;SDS011;13252;53.596;10.060;2023-05-13T12:57:17;4.13;;;2.60;;
1682;SDS011;13252;53.596;10.060;2023-05-13T12:59:45;5.57;;;3.50;;
1682;SDS011;13252;53.596;10.060;2023-05-13T13:02:13;7.67;;;3.33;;
1682;SDS011;13252;53.596;10.060;2023-05-13T13:04:41;4.93;;;2.97;;
1682;SDS011;13252;53.596;10.060;2023-05-13T13:07:09;9.43;;;3.30;;
1682;SDS011;13252;53.596;10.060;2023-05-13T13:09:39;8.73;;;3.97;;
1682;SDS011;13252;53.596;10.060;2023-05-13T13:12:08;10.17;;;7.40;;
1682;SDS011;13252;53.596;10.060;2023-05-13T13:14:36;7.80;;;3.23;;
1682;SDS011;13252;53.596;10.060;2023-05-13T13:17:04;22.60;;;18.33;;
1682;SDS011;13252;53.596;10.060;2023-05-13T13:19:32;5.77;;;3.50;;
1682;SDS011;13252;53.596;10.060;2023-05-13T13:22:00;15.30;;;3.57;;
1682;SDS011;13252;53.596;10.060;2023-05-13T13:24:28;11.60;;;3.97;;
1682;SDS011;13252;53.596;10.060;2023-05-13T13:26:56;13.63;;;3.10;;
1682;SDS011;13252;53.596;10.060;2023-05-13T13:29:25;12.13;;;2.93;;
1682;SDS011;13252;53.596;10.060;2023-05-13T13:31:53;7.77;;;3.60;;
1682;SDS011;13252;53.596;10.060;2023-05-13T13:34:21;10.00;;;3.33;;
1682;SDS011;13252;53.596;10.060;2023-05-13T13:36:49;5.10;;;3.40;;
1682;SDS011;13252;53.596;10.060;2023-05-13T13:39:17;5.80;;;2.80;;
1682;SDS011;13252;53.596;10.060;2023-05-13T13:41:45;6.70;;;3.60;;
1682;SDS011;13252;53.596;10.060;2023-05-13T13:44:13;5.53;;;3.70;;
1682;SDS011;13252;53.596;10.060;2023-05-13T13:46:42;5.70;;;3.10;;
1682;SDS011;13252;53.596;10.060;2023-05-13T13:49:10;8.00;;;4.70;;
1682;SDS011;13252;53.596;10.060;2023-05-13T13:51:48;10.37;;;3.77;;
1682;SDS011;13252;53.596;10.060;2023-05-13T13:54:16;25.30;;;19.40;;
1682;SDS011;13252;53.596;10.060;2023-05-13T13:56:44;13.43;;;3.30;;
1682;SDS011;13252;53.596;10.060;2023-05-13T13:59:12;7.20;;;3.57;;
1682;SDS011;13252;53.596;10.060;2023-05-13T14:01:41;7.67;;;2.90;;
1682;SDS011;13252;53.596;10.060;2023-05-13T14:04:10;9.50;;;3.97;;
1682;SDS011;13252;53.596;10.060;2023-05-13T14:06:39;8.30;;;3.00;;
1682;SDS011;13252;53.596;10.060;2023-05-13T14:09:07;5.80;;;3.13;;
1682;SDS011;13252;53.596;10.060;2023-05-13T14:11:35;7.70;;;2.90;;
1682;SDS011;13252;53.596;10.060;2023-05-13T14:14:03;6.50;;;3.40;;
1682;SDS011;13252;53.596;10.060;2023-05-13T14:16:32;7.37;;;3.47;;
1682;SDS011;13252;53.596;10.060;2023-05-13T14:19:01;11.40;;;3.40;;
1682;SDS011;13252;53.596;10.060;2023-05-13T14:21:29;9.67;;;3.57;;
1682;SDS011;13252;53.596;10.060;2023-05-13T14:23:57;6.97;;;3.10;;
1682;SDS011;13252;53.596;10.060;2023-05-13T14:26:25;8.73;;;3.47;;
1682;SDS011;13252;53.596;10.060;2023-05-13T14:28:52;4.00;;;2.40;;
1682;SDS011;13252;53.596;10.060;2023-05-13T14:31:20;4.47;;;3.60;;
1682;SDS011;13252;53.596;10.060;2023-05-13T14:33:48;12.17;;;4.03;;
1682;SDS011;13252;53.596;10.060;2023-05-13T14:36:17;8.43;;;3.20;;
1682;SDS011;13252;53.596;10.060;2023-05-13T14:38:46;6.70;;;3.33;;
1682;SDS011;13252;53.596;10.060;2023-05-13T14:41:15;6.03;;;2.87;;
1682;SDS011;13252;53.596;10.060;2023-05-13T14:43:45;8.63;;;3.20;;
1682;SDS011;13252;53.596;10.060;2023-05-13T14:46:12;6.90;;;3.10;;
1682;SDS011;13252;53.596;10.060;2023-05-13T14:48:40;4.00;;;2.60;;
1682;SDS011;13252;53.596;10.060;2023-05-13T14:51:08;5.63;;;2.53;;